createdAt,value
2023-02-12T00:05:05.545Z,80.91
2023-02-12T00:10:13.564Z,81.73
2023-02-12T00:15:20.120Z,81.99
2023-02-12T00:20:28.053Z,81.72
2023-02-12T00:25:35.312Z,81.47
2023-02-12T00:30:42.040Z,80.73
2023-02-12T00:35:58.506Z,80.94
2023-02-12T00:41:05.458Z,80.83
2023-02-12T00:46:12.043Z,80.59
2023-02-12T00:51:20.213Z,81.41
2023-02-12T00:56:26.694Z,80.83
2023-02-12T01:01:33.015Z,80.63
2023-02-12T01:06:41.430Z,78.83
2023-02-12T01:11:49.267Z,78.72
2023-02-12T01:16:56.372Z,78.35
2023-02-12T01:22:07.493Z,78.49
2023-02-12T01:27:14.181Z,78.73
2023-02-12T01:32:20.684Z,78.85
2023-02-12T01:37:29.011Z,79.48
2023-02-12T01:42:35.732Z,79.56
2023-02-12T01:47:43.135Z,80.13
2023-02-12T01:52:57.838Z,80.66
2023-02-12T01:58:06.608Z,81.07
2023-02-12T02:03:13.697Z,81.28
2023-02-12T02:08:22.185Z,81.79
2023-02-12T02:13:46.039Z,82.11
2023-02-12T02:19:26.572Z,82.31
2023-02-12T02:25:33.710Z,82.18
2023-02-12T02:30:49.420Z,82.47
2023-02-12T02:36:12.186Z,82.84
2023-02-12T02:41:28.070Z,83.08
2023-02-12T02:46:43.476Z,82.65
2023-02-12T02:51:57.703Z,82.60
2023-02-12T02:57:11.665Z,83.13
2023-02-12T03:02:26.002Z,83.56
2023-02-12T03:07:39.394Z,83.90
2023-02-12T03:12:53.109Z,83.97
2023-02-12T03:18:03.047Z,84.50
2023-02-12T03:23:15.694Z,84.65
2023-02-12T03:28:28.217Z,84.99
2023-02-12T03:33:45.769Z,85.29
2023-02-12T03:38:58.477Z,85.07
2023-02-12T03:44:15.609Z,84.92
2023-02-12T03:49:33.385Z,85.02
2023-02-12T03:54:40.049Z,85.14
2023-02-12T03:59:48.418Z,85.80
2023-02-12T04:04:56.210Z,86.13
2023-02-12T04:10:02.710Z,86.13
2023-02-12T04:15:34.192Z,86.43
2023-02-12T04:20:56.246Z,86.21
2023-02-12T04:26:19.576Z,86.52
2023-02-12T04:31:32.287Z,85.86
2023-02-12T04:36:48.977Z,85.67
2023-02-12T04:41:55.951Z,85.73
2023-02-12T04:47:03.935Z,85.83
2023-02-12T04:52:12.804Z,85.63
2023-02-12T04:57:20.903Z,85.92
2023-02-12T05:02:29.452Z,85.92
2023-02-12T05:07:37.295Z,86.31
2023-02-12T05:12:43.601Z,86.39
2023-02-12T05:17:50.481Z,86.52
2023-02-12T05:22:58.397Z,86.86
2023-02-12T05:28:05.016Z,87.18
2023-02-12T05:33:11.818Z,86.83
2023-02-12T05:38:23.344Z,87.83
2023-02-12T05:43:30.170Z,87.73
2023-02-12T05:48:38.212Z,87.11
2023-02-12T05:53:47.596Z,86.70
2023-02-12T05:58:57.627Z,87.14
2023-02-12T06:04:07.127Z,86.66
2023-02-12T06:09:17.370Z,86.57
2023-02-12T06:14:24.130Z,85.72
2023-02-12T06:19:30.795Z,84.91
2023-02-12T06:24:40.569Z,84.34
2023-02-12T06:29:47.248Z,83.97
2023-02-12T06:34:53.696Z,83.38
2023-02-12T06:40:01.710Z,83.01
2023-02-12T06:45:10.904Z,82.81
2023-02-12T06:50:19.473Z,83.13
2023-02-12T06:55:28.083Z,83.20
2023-02-12T07:00:34.486Z,83.46
2023-02-12T07:05:43.312Z,83.77
2023-02-12T07:10:53.244Z,84.02
2023-02-12T07:15:59.787Z,84.63
2023-02-12T07:21:08.441Z,85.18
2023-02-12T07:26:17.808Z,85.18
2023-02-12T07:31:26.152Z,84.90
2023-02-12T07:36:35.195Z,84.55
2023-02-12T07:41:43.106Z,84.84
2023-02-12T07:46:50.882Z,84.35
2023-02-12T07:51:57.389Z,84.12
2023-02-12T07:57:05.437Z,84.26
2023-02-12T08:02:12.657Z,84.16
2023-02-12T08:07:21.690Z,84.45
2023-02-12T08:12:30.398Z,84.38
2023-02-12T08:17:37.973Z,83.60
2023-02-12T08:22:44.607Z,82.65
2023-02-12T08:27:53.642Z,82.30
2023-02-12T08:33:01.209Z,82.54
2023-02-12T08:38:08.037Z,82.51
2023-02-12T08:43:16.151Z,82.54
2023-02-12T08:48:22.797Z,81.44
2023-02-12T08:53:29.505Z,80.87
2023-02-12T08:58:38.411Z,80.97
2023-02-12T09:03:46.138Z,81.14
2023-02-12T09:08:55.550Z,81.14
2023-02-12T09:14:06.327Z,80.71
2023-02-12T09:19:15.827Z,80.41
2023-02-12T09:24:22.389Z,80.60
2023-02-12T09:29:30.335Z,80.96
2023-02-12T09:34:37.644Z,80.01
2023-02-12T09:39:44.929Z,80.84
2023-02-12T09:45:00.969Z,80.65
2023-02-12T09:50:39.019Z,80.59
2023-02-12T09:55:46.409Z,80.71
2023-02-12T10:00:56.148Z,79.89
2023-02-12T10:06:07.063Z,79.44
2023-02-12T10:11:47.695Z,79.28
2023-02-12T10:17:06.042Z,79.62
2023-02-12T10:22:26.357Z,79.62
2023-02-12T10:27:42.870Z,79.52
2023-02-12T10:32:56.566Z,79.48
2023-02-12T10:38:09.602Z,79.60
2023-02-12T10:43:18.816Z,79.09
2023-02-12T10:48:37.340Z,79.26
2023-02-12T10:53:47.140Z,79.53
2023-02-12T10:58:59.764Z,79.84
2023-02-12T11:09:49.998Z,79.63
2023-02-12T11:15:01.422Z,79.39
2023-02-12T11:20:28.420Z,79.45
2023-02-12T11:25:40.225Z,79.63
2023-02-12T11:31:01.292Z,79.44
2023-02-12T11:36:24.758Z,79.25
2023-02-12T11:41:37.848Z,78.91
2023-02-12T11:46:52.460Z,79.16
2023-02-12T11:52:08.780Z,79.15
2023-02-12T11:57:43.960Z,79.25
2023-02-12T12:03:05.545Z,78.92
2023-02-12T12:08:26.930Z,78.81
2023-02-12T12:13:46.732Z,78.61
2023-02-12T12:19:18.814Z,78.77
2023-02-12T12:24:33.947Z,78.63
2023-02-12T12:29:55.584Z,78.90
2023-02-12T12:35:08.580Z,78.99
2023-02-12T12:40:53.951Z,79.00
2023-02-12T12:46:31.949Z,79.01
2023-02-12T12:52:03.757Z,78.82
2023-02-12T12:57:24.361Z,78.56
2023-02-12T13:03:23.767Z,78.04
2023-02-12T13:09:05.078Z,78.28
2023-02-12T13:14:45.614Z,78.43
2023-02-12T13:20:09.747Z,78.05
2023-02-12T13:25:31.734Z,78.17
2023-02-12T13:30:46.365Z,78.38
2023-02-12T13:36:01.503Z,78.12
2023-02-12T13:41:13.996Z,78.09
2023-02-12T13:46:32.760Z,78.14
2023-02-12T13:51:47.213Z,78.27
2023-02-12T13:56:58.422Z,78.94
2023-02-12T14:02:08.518Z,79.46
2023-02-12T14:07:22.259Z,79.44
2023-02-12T14:12:36.630Z,78.89
2023-02-12T14:17:56.766Z,79.46
2023-02-12T14:23:30.046Z,80.09
2023-02-12T14:28:55.551Z,79.53
2023-02-12T14:34:50.122Z,79.33
2023-02-12T14:40:43.274Z,79.72
2023-02-12T14:45:54.416Z,80.47
2023-02-12T14:51:07.756Z,80.59
2023-02-12T14:56:24.838Z,80.24
2023-02-12T15:01:40.239Z,80.34
2023-02-12T15:06:57.815Z,80.13
2023-02-12T15:12:19.724Z,80.60
2023-02-12T15:17:36.365Z,80.59
2023-02-12T15:22:46.115Z,80.47
2023-02-12T15:27:59.858Z,80.46
2023-02-12T15:33:23.603Z,80.82
2023-02-12T15:38:36.905Z,81.11
2023-02-12T15:43:52.919Z,81.61
2023-02-12T15:49:13.910Z,81.53
2023-02-12T15:54:24.740Z,82.07
2023-02-12T15:59:39.343Z,82.36
2023-02-12T16:04:50.830Z,82.76
2023-02-12T16:10:03.678Z,82.73
2023-02-12T16:15:38.780Z,82.29
2023-02-12T16:20:52.384Z,82.95
2023-02-12T16:26:05.222Z,83.17
2023-02-12T16:31:20.324Z,83.28
2023-02-12T16:36:46.323Z,83.23
2023-02-12T16:42:00.134Z,83.67
2023-02-12T16:47:24.463Z,83.86
2023-02-12T16:52:41.603Z,84.16
2023-02-12T16:57:56.229Z,84.23
2023-02-12T17:03:07.631Z,84.31
2023-02-12T17:08:19.836Z,84.29
2023-02-12T17:13:34.295Z,84.34
2023-02-12T17:18:54.438Z,84.75
2023-02-12T17:24:04.426Z,84.98
2023-02-12T17:29:14.103Z,84.94
2023-02-12T17:34:39.710Z,85.01
2023-02-12T17:39:57.140Z,84.95
2023-02-12T17:45:07.014Z,85.18
2023-02-12T17:50:20.684Z,85.19
2023-02-12T17:55:31.429Z,84.97
2023-02-12T18:00:43.160Z,85.10
2023-02-12T18:05:54.666Z,85.32
2023-02-12T18:11:09.284Z,85.21
2023-02-12T18:16:20.151Z,85.03
2023-02-12T18:21:35.230Z,85.22
2023-02-12T18:26:47.139Z,85.29
2023-02-12T18:32:00.965Z,84.96
2023-02-12T18:37:17.317Z,85.75
2023-02-12T18:42:29.250Z,85.73
2023-02-12T18:47:41.265Z,85.68
2023-02-12T18:52:54.394Z,85.83
2023-02-12T18:58:04.926Z,86.05
2023-02-12T19:03:16.721Z,86.54
2023-02-12T19:08:35.930Z,87.01
2023-02-12T19:13:47.023Z,87.19
2023-02-12T19:18:59.499Z,87.41
2023-02-12T19:24:15.223Z,87.86
2023-02-12T19:29:25.914Z,88.12
2023-02-12T19:34:37.982Z,88.32
2023-02-12T19:39:48.809Z,88.70
2023-02-12T19:44:58.422Z,88.52
2023-02-12T19:50:10.759Z,88.76
2023-02-12T19:55:23.081Z,89.03
2023-02-12T20:00:33.801Z,88.93
2023-02-12T20:05:54.011Z,89.24
2023-02-12T20:11:14.290Z,89.72
2023-02-12T20:16:32.067Z,89.75
2023-02-12T20:21:45.731Z,89.78
2023-02-12T20:27:02.229Z,90.12
2023-02-12T20:32:12.933Z,90.38
2023-02-12T20:37:23.932Z,90.77
2023-02-12T20:42:49.288Z,90.83
2023-02-12T20:48:04.012Z,91.31
2023-02-12T20:53:15.116Z,91.60
2023-02-12T20:58:28.855Z,92.03
2023-02-12T21:03:53.835Z,92.12
2023-02-12T21:09:02.742Z,92.40
2023-02-12T21:14:24.245Z,92.63
2023-02-12T21:19:35.436Z,93.04
2023-02-12T21:24:45.557Z,93.15
2023-02-12T21:29:58.772Z,93.26
2023-02-12T21:35:08.336Z,93.85
2023-02-12T21:40:19.288Z,93.71
2023-02-12T21:45:28.692Z,93.99
2023-02-12T21:50:38.429Z,94.21
2023-02-12T21:55:48.578Z,94.33
2023-02-12T22:00:57.378Z,94.65
2023-02-12T22:06:05.085Z,94.79
2023-02-12T22:11:14.273Z,94.85
2023-02-12T22:16:25.143Z,94.84
2023-02-12T22:21:34.534Z,94.81
2023-02-12T22:26:41.231Z,94.90
2023-02-12T22:31:50.118Z,94.99
2023-02-12T22:36:56.516Z,94.94
2023-02-12T22:42:03.037Z,95.13
2023-02-12T22:47:11.037Z,95.23
2023-02-12T22:52:18.104Z,95.08
2023-02-12T22:57:25.731Z,95.23
2023-02-12T23:02:34.387Z,95.40
2023-02-12T23:07:41.162Z,95.23
2023-02-12T23:12:47.943Z,95.46
2023-02-12T23:17:56.014Z,95.52
2023-02-12T23:23:02.582Z,95.48
2023-02-12T23:28:09.385Z,95.53
2023-02-12T23:33:17.364Z,95.51
2023-02-12T23:38:23.897Z,95.36
2023-02-12T23:43:30.726Z,95.51
2023-02-12T23:48:38.891Z,95.46
2023-02-12T23:53:45.444Z,95.32
2023-02-12T23:58:51.968Z,95.43
